Time;durP1;ratioP1;P1;durP2;ratioP2;P2;SDS_P1;SDS_P2;PMS_P1;PMS_P2;Temp;Humidity;BMP_temperature;BMP_pressure;BME280_temperature;BME280_humidity;BME280_pressure;Samples;Min_cycle;Max_cycle;Signal;HPM_P1;HPM_P2
2021/04/14 00:00:44;;;;;;;8.00;3.95;;;;;;;;;;5077247;28;20040;-65
2021/04/14 00:03:12;;;;;;;4.18;2.60;;;;;;;;;;5078702;28;20020;-66
2021/04/14 00:05:38;;;;;;;5.75;3.38;;;;;;;;;;5077052;28;20447;-66
2021/04/14 00:08:04;;;;;;;7.13;3.30;;;;;;;;;;5073750;28;20065;-66
2021/04/14 00:10:55;;;;;;;6.70;2.35;;;;;;;;;;5075507;28;20498;-66
2021/04/14 00:13:23;;;;;;;7.38;3.20;;;;;;;;;;5076501;28;20073;-66
2021/04/14 00:15:53;;;;;;;5.93;2.30;;;;;;;;;;5076664;28;20044;-65
2021/04/14 00:18:19;;;;;;;4.63;2.30;;;;;;;;;;5078060;28;20048;-65
2021/04/14 00:20:45;;;;;;;4.95;1.92;;;;;;;;;;5077620;28;20265;-66
2021/04/14 00:23:11;;;;;;;2.80;2.20;;;;;;;;;;5079321;28;20024;-67
2021/04/14 00:25:39;;;;;;;5.88;3.10;;;;;;;;;;5077091;28;20076;-66
2021/04/14 00:28:04;;;;;;;3.67;2.58;;;;;;;;;;5079686;28;20016;-66
2021/04/14 00:30:30;;;;;;;2.53;2.17;;;;;;;;;;5077076;28;20036;-66
2021/04/14 00:32:56;;;;;;;6.45;1.90;;;;;;;;;;5076828;28;20426;-66
2021/04/14 00:35:22;;;;;;;8.60;2.47;;;;;;;;;;5077584;28;20039;-66
2021/04/14 00:37:48;;;;;;;6.10;2.15;;;;;;;;;;5074538;28;20054;-66
2021/04/14 00:40:17;;;;;;;6.68;2.38;;;;;;;;;;5079335;28;20070;-66
2021/04/14 00:42:43;;;;;;;7.00;3.88;;;;;;;;;;5080668;28;20020;-66
2021/04/14 00:45:09;;;;;;;9.50;3.28;;;;;;;;;;5083163;28;20035;-67
2021/04/14 00:47:34;;;;;;;4.18;2.38;;;;;;;;;;5080380;28;20020;-66
2021/04/14 00:49:59;;;;;;;4.45;2.45;;;;;;;;;;5083059;28;20028;-67
2021/04/14 00:52:25;;;;;;;6.43;2.15;;;;;;;;;;5079110;28;20375;-66
2021/04/14 00:54:50;;;;;;;11.50;2.97;;;;;;;;;;5078367;28;20036;-66
2021/04/14 00:57:15;;;;;;;10.40;3.33;;;;;;;;;;5080603;28;20024;-66
2021/04/14 00:59:41;;;;;;;5.88;3.10;;;;;;;;;;5080090;28;20027;-66
2021/04/14 01:02:07;;;;;;;8.95;5.32;;;;;;;;;;5077721;28;20012;-66
2021/04/14 01:04:36;;;;;;;7.40;2.33;;;;;;;;;;5080008;28;20023;-66
2021/04/14 01:07:01;;;;;;;8.20;4.00;;;;;;;;;;5082850;28;20759;-66
2021/04/14 01:09:27;;;;;;;5.93;3.15;;;;;;;;;;5080060;28;20042;-66
2021/04/14 01:11:52;;;;;;;10.82;5.35;;;;;;;;;;5081288;28;20099;-66
2021/04/14 01:14:18;;;;;;;6.78;3.70;;;;;;;;;;5080663;28;20429;-62
2021/04/14 01:16:43;;;;;;;4.88;4.03;;;;;;;;;;5078732;28;20052;-62
2021/04/14 01:19:08;;;;;;;2.53;1.50;;;;;;;;;;5081551;28;20076;-62
2021/04/14 01:21:38;;;;;;;4.20;2.67;;;;;;;;;;5078818;28;20135;-62
2021/04/14 01:24:13;;;;;;;3.97;2.38;;;;;;;;;;5081174;28;20020;-62
2021/04/14 01:26:39;;;;;;;3.53;0.88;;;;;;;;;;5078642;28;20028;-62
2021/04/14 01:29:05;;;;;;;5.07;1.23;;;;;;;;;;5081116;28;20027;-62
2021/04/14 01:31:33;;;;;;;9.95;1.02;;;;;;;;;;5078631;28;20341;-62
2021/04/14 01:33:59;;;;;;;4.25;1.33;;;;;;;;;;5080676;28;20090;-62
2021/04/14 01:36:25;;;;;;;2.38;1.00;;;;;;;;;;5078513;28;20035;-62
2021/04/14 01:38:50;;;;;;;2.75;1.50;;;;;;;;;;5079552;28;20115;-62
2021/04/14 01:41:15;;;;;;;3.70;0.90;;;;;;;;;;5079928;28;20373;-62
2021/04/14 01:43:41;;;;;;;2.65;1.45;;;;;;;;;;5077987;28;20060;-62
2021/04/14 01:46:06;;;;;;;2.60;1.48;;;;;;;;;;5080973;28;20032;-62
2021/04/14 01:48:31;;;;;;;4.28;2.65;;;;;;;;;;5074838;28;20021;-62
2021/04/14 01:50:56;;;;;;;6.72;2.42;;;;;;;;;;5079625;28;20398;-62
2021/04/14 01:53:22;;;;;;;6.57;1.95;;;;;;;;;;5075430;28;20020;-62
2021/04/14 01:55:51;;;;;;;4.22;2.65;;;;;;;;;;5079022;28;20467;-62
2021/04/14 01:58:17;;;;;;;5.20;2.70;;;;;;;;;;5077831;28;20020;-62
2021/04/14 02:00:53;;;;;;;4.20;2.63;;;;;;;;;;5075075;28;20048;-62
2021/04/14 02:03:19;;;;;;;4.90;1.75;;;;;;;;;;5078983;28;20020;-62
2021/04/14 02:05:44;;;;;;;5.15;2.85;;;;;;;;;;5078168;28;20619;-62
2021/04/14 02:08:10;;;;;;;5.22;1.70;;;;;;;;;;5077188;28;20061;-62
2021/04/14 02:10:35;;;;;;;3.70;1.67;;;;;;;;;;5077757;28;20031;-62
2021/04/14 02:13:02;;;;;;;1.58;1.13;;;;;;;;;;5080251;28;20909;-62
2021/04/14 02:15:28;;;;;;;3.55;2.22;;;;;;;;;;5077642;28;20089;-62
2021/04/14 02:17:54;;;;;;;1.65;1.10;;;;;;;;;;5078829;28;20045;-62
2021/04/14 02:20:20;;;;;;;1.92;1.30;;;;;;;;;;5078412;28;20537;-62
2021/04/14 02:22:45;;;;;;;1.77;0.90;;;;;;;;;;5077809;28;20017;-62
2021/04/14 02:25:12;;;;;;;2.58;0.68;;;;;;;;;;5079609;28;20065;-62
2021/04/14 02:27:38;;;;;;;1.92;1.35;;;;;;;;;;5077001;28;20032;-62
2021/04/14 02:30:08;;;;;;;2.47;1.23;;;;;;;;;;5080076;28;20028;-62
2021/04/14 02:32:34;;;;;;;4.17;1.50;;;;;;;;;;5077448;28;20130;-62
2021/04/14 02:34:59;;;;;;;2.95;1.90;;;;;;;;;;5079750;28;20180;-62
2021/04/14 02:37:24;;;;;;;2.90;1.75;;;;;;;;;;5077363;28;20375;-62
2021/04/14 02:39:50;;;;;;;7.15;2.72;;;;;;;;;;5076631;28;20064;-62
2021/04/14 02:42:15;;;;;;;2.80;1.85;;;;;;;;;;5077125;28;20361;-62
2021/04/14 02:44:40;;;;;;;4.95;2.47;;;;;;;;;;5076930;28;20050;-62
2021/04/14 02:47:05;;;;;;;3.53;2.40;;;;;;;;;;5079754;28;20115;-62
2021/04/14 02:49:32;;;;;;;3.58;1.90;;;;;;;;;;5076912;28;20088;-62
2021/04/14 02:51:57;;;;;;;6.68;2.75;;;;;;;;;;5079169;28;20543;-62
2021/04/14 02:54:22;;;;;;;6.53;1.55;;;;;;;;;;5077707;28;20025;-61
2021/04/14 02:56:47;;;;;;;2.63;1.42;;;;;;;;;;5074656;28;20090;-61
2021/04/14 02:59:13;;;;;;;1.05;0.75;;;;;;;;;;5078666;28;20078;-62
2021/04/14 03:01:38;;;;;;;3.15;1.58;;;;;;;;;;5077104;28;20029;-62
2021/04/14 03:04:05;;;;;;;2.63;1.63;;;;;;;;;;5079242;28;20378;-61
2021/04/14 03:06:31;;;;;;;4.07;2.15;;;;;;;;;;5077066;28;20035;-61
2021/04/14 03:08:56;;;;;;;2.40;1.15;;;;;;;;;;5078521;28;20016;-62
2021/04/14 03:11:21;;;;;;;1.65;1.50;;;;;;;;;;5077625;28;20036;-61
2021/04/14 03:13:47;;;;;;;2.55;1.55;;;;;;;;;;5077007;28;20020;-62
2021/04/14 03:16:12;;;;;;;5.25;1.98;;;;;;;;;;5078431;28;20036;-61
2021/04/14 03:18:37;;;;;;;2.70;1.20;;;;;;;;;;5076033;28;20407;-62
2021/04/14 03:21:03;;;;;;;5.35;1.50;;;;;;;;;;5079386;28;20036;-62
2021/04/14 03:23:28;;;;;;;2.65;0.98;;;;;;;;;;5076351;28;20028;-62
2021/04/14 03:25:54;;;;;;;3.55;1.55;;;;;;;;;;5078395;28;20035;-61
2021/04/14 03:28:19;;;;;;;2.72;1.88;;;;;;;;;;5072750;28;20040;-62
2021/04/14 03:30:45;;;;;;;3.65;1.38;;;;;;;;;;5077000;28;20333;-62
2021/04/14 03:33:11;;;;;;;5.40;1.75;;;;;;;;;;5078647;28;20043;-62
2021/04/14 03:35:37;;;;;;;5.07;2.13;;;;;;;;;;5076720;28;20613;-62
2021/04/14 03:38:03;;;;;;;6.20;2.45;;;;;;;;;;5079041;28;20053;-62
2021/04/14 03:40:28;;;;;;;3.17;2.00;;;;;;;;;;5076437;28;20451;-61
2021/04/14 03:42:55;;;;;;;3.08;2.47;;;;;;;;;;5077984;28;20020;-61
2021/04/14 03:45:26;;;;;;;7.93;2.83;;;;;;;;;;5076783;28;20024;-62
2021/04/14 03:47:52;;;;;;;3.20;1.83;;;;;;;;;;5074876;28;20025;-62
2021/04/14 03:50:18;;;;;;;23.95;2.05;;;;;;;;;;5077586;28;20062;-63
2021/04/14 03:52:43;;;;;;;4.40;2.22;;;;;;;;;;5076330;28;20025;-62
2021/04/14 03:55:09;;;;;;;5.25;3.08;;;;;;;;;;5078877;28;20098;-62
2021/04/14 03:57:35;;;;;;;2.22;1.77;;;;;;;;;;5075846;28;20509;-62
2021/04/14 04:00:00;;;;;;;8.38;2.92;;;;;;;;;;5073015;28;20044;-62
2021/04/14 04:02:25;;;;;;;4.85;2.60;;;;;;;;;;5075937;28;20025;-62
2021/04/14 04:04:51;;;;;;;6.45;2.80;;;;;;;;;;5077217;28;20450;-62
2021/04/14 04:07:16;;;;;;;3.97;1.55;;;;;;;;;;5077497;28;20044;-62
2021/04/14 04:09:41;;;;;;;1.98;1.77;;;;;;;;;;5075744;28;20428;-62
2021/04/14 04:12:09;;;;;;;5.47;1.70;;;;;;;;;;5073313;28;20018;-62
2021/04/14 04:14:36;;;;;;;3.38;1.58;;;;;;;;;;5077802;28;20020;-62
2021/04/14 04:17:01;;;;;;;2.50;1.88;;;;;;;;;;5082364;28;20084;-62
2021/04/14 04:19:27;;;;;;;1.95;1.13;;;;;;;;;;5079717;28;20066;-62
2021/04/14 04:21:52;;;;;;;9.30;2.38;;;;;;;;;;5079589;28;20040;-62
2021/04/14 04:24:17;;;;;;;3.47;2.03;;;;;;;;;;5074533;28;20029;-62
2021/04/14 04:26:43;;;;;;;4.45;1.90;;;;;;;;;;5080412;28;20028;-66
2021/04/14 04:29:08;;;;;;;3.55;2.15;;;;;;;;;;5083605;28;20024;-65
2021/04/14 04:31:33;;;;;;;4.82;1.90;;;;;;;;;;5081387;28;20036;-66
2021/04/14 04:33:58;;;;;;;6.55;2.97;;;;;;;;;;5080596;28;20476;-66
2021/04/14 04:36:24;;;;;;;3.67;2.30;;;;;;;;;;5081042;28;20107;-66
2021/04/14 04:38:49;;;;;;;3.75;2.35;;;;;;;;;;5081948;28;20106;-66
2021/04/14 04:41:14;;;;;;;5.13;2.22;;;;;;;;;;5081907;28;20153;-64
2021/04/14 04:43:42;;;;;;;7.15;2.20;;;;;;;;;;5076691;28;20358;-64
2021/04/14 04:46:07;;;;;;;6.47;2.75;;;;;;;;;;5077120;28;20016;-64
2021/04/14 04:48:32;;;;;;;4.95;2.22;;;;;;;;;;5079146;28;20030;-64
2021/04/14 04:50:58;;;;;;;7.78;2.35;;;;;;;;;;5081852;28;20352;-65
2021/04/14 04:53:23;;;;;;;4.80;2.20;;;;;;;;;;5079867;28;20090;-65
2021/04/14 04:55:50;;;;;;;7.50;3.80;;;;;;;;;;5078791;28;20032;-65
2021/04/14 04:58:15;;;;;;;5.15;2.67;;;;;;;;;;5077469;28;20043;-64
2021/04/14 05:00:41;;;;;;;11.38;4.68;;;;;;;;;;5079085;28;20025;-65
2021/04/14 05:03:07;;;;;;;7.20;2.50;;;;;;;;;;5076459;28;20487;-65
2021/04/14 05:05:34;;;;;;;3.05;1.33;;;;;;;;;;5079213;28;20040;-64
2021/04/14 05:08:00;;;;;;;4.85;3.58;;;;;;;;;;5081428;28;20467;-65
2021/04/14 05:10:26;;;;;;;4.57;2.20;;;;;;;;;;5076568;28;20024;-65
2021/04/14 05:12:52;;;;;;;5.07;3.35;;;;;;;;;;5080230;28;20099;-65
2021/04/14 05:15:22;;;;;;;20.00;4.75;;;;;;;;;;5080085;28;20057;-65
2021/04/14 05:17:48;;;;;;;5.15;3.63;;;;;;;;;;5079261;28;20063;-65
2021/04/14 05:20:13;;;;;;;2.80;2.28;;;;;;;;;;5080768;28;20027;-65
2021/04/14 05:22:38;;;;;;;10.57;5.93;;;;;;;;;;5078800;28;20353;-64
2021/04/14 05:25:06;;;;;;;17.52;11.70;;;;;;;;;;5080790;28;20055;-64
2021/04/14 05:27:31;;;;;;;24.38;12.55;;;;;;;;;;5074798;28;20016;-65
2021/04/14 05:29:56;;;;;;;14.15;8.48;;;;;;;;;;5080288;28;20363;-59
2021/04/14 05:32:23;;;;;;;13.07;7.38;;;;;;;;;;5079428;28;20109;-58
2021/04/14 05:34:48;;;;;;;15.55;11.82;;;;;;;;;;5079606;28;20024;-58
2021/04/14 05:37:13;;;;;;;16.00;8.70;;;;;;;;;;5080543;28;20468;-59
2021/04/14 05:39:39;;;;;;;11.25;8.73;;;;;;;;;;5078735;28;20025;-58
2021/04/14 05:42:04;;;;;;;10.70;6.07;;;;;;;;;;5081402;28;20020;-58
2021/04/14 05:44:29;;;;;;;9.30;7.65;;;;;;;;;;5078512;28;20025;-59
2021/04/14 05:46:55;;;;;;;13.07;8.15;;;;;;;;;;5077855;28;20051;-59
2021/04/14 05:49:20;;;;;;;16.30;7.75;;;;;;;;;;5079499;28;20028;-59
2021/04/14 05:51:45;;;;;;;11.88;7.10;;;;;;;;;;5079261;28;20051;-59
2021/04/14 05:54:11;;;;;;;22.75;9.27;;;;;;;;;;5077515;28;20016;-58
2021/04/14 05:56:36;;;;;;;8.95;7.18;;;;;;;;;;5078653;28;20169;-58
2021/04/14 05:59:01;;;;;;;10.15;8.38;;;;;;;;;;5081113;28;20056;-59
2021/04/14 06:01:29;;;;;;;10.05;5.60;;;;;;;;;;5078623;28;20029;-58
2021/04/14 06:03:54;;;;;;;15.90;6.97;;;;;;;;;;5079922;28;20020;-58
2021/04/14 06:06:20;;;;;;;9.15;4.68;;;;;;;;;;5079302;28;20382;-59
2021/04/14 06:08:45;;;;;;;8.57;4.28;;;;;;;;;;5078496;28;20196;-60
2021/04/14 06:11:11;;;;;;;4.72;3.20;;;;;;;;;;5080571;28;20507;-59
2021/04/14 06:13:37;;;;;;;7.15;4.95;;;;;;;;;;5077930;28;20024;-59
2021/04/14 06:16:06;;;;;;;11.70;6.75;;;;;;;;;;5080543;28;20047;-59
2021/04/14 06:18:31;;;;;;;23.48;14.75;;;;;;;;;;5077664;28;20052;-59
2021/04/14 06:20:57;;;;;;;31.73;24.13;;;;;;;;;;5080336;28;20035;-60
2021/04/14 06:23:23;;;;;;;17.05;14.60;;;;;;;;;;5078155;28;20174;-59
2021/04/14 06:28:33;;;;;;;10.23;7.28;;;;;;;;;;5077617;28;20566;-59
2021/04/14 06:30:58;;;;;;;10.20;6.00;;;;;;;;;;5080178;28;20119;-60
2021/04/14 06:33:24;;;;;;;7.22;6.53;;;;;;;;;;5077899;28;20098;-60
2021/04/14 06:35:52;;;;;;;14.15;5.90;;;;;;;;;;5075562;28;20028;-59
2021/04/14 06:38:21;;;;;;;11.43;6.80;;;;;;;;;;5077187;28;20024;-60
2021/04/14 06:43:14;;;;;;;17.10;8.32;;;;;;;;;;5079052;28;20027;-60
2021/04/14 06:45:42;;;;;;;15.23;9.35;;;;;;;;;;5077288;28;20452;-60
2021/04/14 06:48:10;;;;;;;22.48;10.48;;;;;;;;;;5074259;28;20024;-58
2021/04/14 06:50:41;;;;;;;13.32;8.48;;;;;;;;;;5077311;28;20063;-60
2021/04/14 06:53:07;;;;;;;;;;;;;;;;;;5080414;28;20167;-59
2021/04/14 06:55:34;;;;;;;16.17;8.55;;;;;;;;;;5077349;28;20010;-60
2021/04/14 06:58:05;;;;;;;7.68;5.68;;;;;;;;;;5079480;28;20100;-59
2021/04/14 07:00:35;;;;;;;13.18;5.18;;;;;;;;;;5077188;28;20119;-67
2021/04/14 07:03:06;;;;;;;19.90;5.60;;;;;;;;;;5079640;28;20067;-67
2021/04/14 07:05:46;;;;;;;7.07;4.63;;;;;;;;;;5076176;28;20047;-66
2021/04/14 07:08:17;;;;;;;11.07;7.22;;;;;;;;;;5076350;28;20493;-67
2021/04/14 07:10:42;;;;;;;;;;;;;;;;;;5077526;28;20116;-65
2021/04/14 07:13:10;;;;;;;10.00;8.13;;;;;;;;;;5079140;28;19999;-64
2021/04/14 07:15:36;;;;;;;11.77;6.95;;;;;;;;;;5076776;28;20025;-65
2021/04/14 07:18:02;;;;;;;12.18;10.75;;;;;;;;;;5079100;28;20044;-65
2021/04/14 07:20:32;;;;;;;41.03;30.52;;;;;;;;;;5076816;28;20518;-65
2021/04/14 07:23:10;;;;;;;45.53;28.92;;;;;;;;;;5078498;28;20021;-65
2021/04/14 07:25:38;;;;;;;36.08;22.00;;;;;;;;;;5075210;28;20062;-64
2021/04/14 07:28:12;;;;;;;28.60;20.75;;;;;;;;;;5077471;28;20073;-57
2021/04/14 07:30:46;;;;;;;25.45;17.15;;;;;;;;;;5076332;28;20024;-58
2021/04/14 07:33:18;;;;;;;14.93;12.55;;;;;;;;;;5073995;28;20035;-59
2021/04/14 07:35:57;;;;;;;12.02;10.38;;;;;;;;;;5076268;28;20025;-59
2021/04/14 07:38:28;;;;;;;12.27;9.02;;;;;;;;;;5073300;28;20024;-57
2021/04/14 07:40:54;;;;;;;15.23;9.75;;;;;;;;;;5077860;28;20060;-60
2021/04/14 07:43:22;;;;;;;18.42;12.10;;;;;;;;;;5077192;28;20039;-59
2021/04/14 07:45:48;;;;;;;18.25;10.32;;;;;;;;;;5077237;28;20047;-58
2021/04/14 07:48:17;;;;;;;8.40;6.20;;;;;;;;;;5077007;28;20020;-60
2021/04/14 07:50:49;;;;;;;11.55;5.30;;;;;;;;;;5072749;28;20732;-57
2021/04/14 07:53:22;;;;;;;5.88;3.63;;;;;;;;;;5073656;28;20026;-57
2021/04/14 07:55:59;;;;;;;6.65;3.60;;;;;;;;;;5072756;28;20431;-57
2021/04/14 07:58:25;;;;;;;11.50;4.13;;;;;;;;;;5072953;28;20021;-57
2021/04/14 08:00:50;;;;;;;3.40;1.75;;;;;;;;;;5074869;28;20020;-56
2021/04/14 08:03:22;;;;;;;7.47;5.53;;;;;;;;;;5069805;28;20108;-57
2021/04/14 08:05:47;;;;;;;16.17;6.57;;;;;;;;;;5073425;28;20032;-57
2021/04/14 08:08:14;;;;;;;11.38;2.90;;;;;;;;;;5076964;28;20511;-61
2021/04/14 08:10:39;;;;;;;22.10;5.50;;;;;;;;;;5077329;28;20107;-61
2021/04/14 08:13:06;;;;;;;6.30;3.70;;;;;;;;;;5078857;28;20153;-65
2021/04/14 08:15:42;;;;;;;10.00;4.47;;;;;;;;;;5076029;28;20036;-68
2021/04/14 08:18:10;;;;;;;6.93;4.25;;;;;;;;;;5072918;28;20097;-68
2021/04/14 08:20:36;;;;;;;15.85;5.30;;;;;;;;;;5076286;28;20059;-66
2021/04/14 08:23:10;;;;;;;19.60;7.85;;;;;;;;;;5078420;28;20103;-65
2021/04/14 08:25:36;;;;;;;5.13;4.30;;;;;;;;;;5075861;28;20024;-65
2021/04/14 08:28:02;;;;;;;12.18;3.95;;;;;;;;;;5077605;28;20527;-65
2021/04/14 08:30:29;;;;;;;9.38;5.03;;;;;;;;;;5074453;28;20040;-65
2021/04/14 08:32:54;;;;;;;11.27;3.90;;;;;;;;;;5077210;28;20144;-65
2021/04/14 08:35:31;;;;;;;9.23;3.92;;;;;;;;;;5076381;28;20121;-65
2021/04/14 08:38:07;;;;;;;15.77;5.78;;;;;;;;;;5074332;28;20380;-65
2021/04/14 08:40:43;;;;;;;10.70;6.00;;;;;;;;;;5075704;28;20044;-65
2021/04/14 08:43:10;;;;;;;7.78;4.05;;;;;;;;;;5073135;28;20368;-65
2021/04/14 08:45:37;;;;;;;7.63;3.65;;;;;;;;;;5075642;28;20036;-65
2021/04/14 08:48:06;;;;;;;11.35;4.20;;;;;;;;;;5077960;28;20020;-66
2021/04/14 08:50:34;;;;;;;6.72;4.18;;;;;;;;;;5075879;28;20025;-69
2021/04/14 08:53:02;;;;;;;4.75;3.30;;;;;;;;;;5077125;28;20035;-64
2021/04/14 08:55:28;;;;;;;4.22;1.95;;;;;;;;;;5075867;28;20028;-64
2021/04/14 08:57:55;;;;;;;18.73;3.72;;;;;;;;;;5063023;28;20020;-64
2021/04/14 09:00:20;;;;;;;18.70;4.03;;;;;;;;;;5067674;28;20051;-64
2021/04/14 09:02:47;;;;;;;6.47;2.88;;;;;;;;;;5075692;28;20073;-64
2021/04/14 09:05:15;;;;;;;8.02;2.90;;;;;;;;;;5077824;28;20036;-64
2021/04/14 09:07:41;;;;;;;9.88;2.45;;;;;;;;;;5075977;28;20086;-64
2021/04/14 09:10:09;;;;;;;6.40;2.10;;;;;;;;;;5073106;28;20109;-64
2021/04/14 09:12:38;;;;;;;8.50;2.13;;;;;;;;;;5070109;28;20825;-64
2021/04/14 09:15:05;;;;;;;3.35;1.63;;;;;;;;;;5085074;28;20032;-64
2021/04/14 09:17:30;;;;;;;6.10;1.85;;;;;;;;;;5068948;28;20498;-63
2021/04/14 09:20:05;;;;;;;12.60;3.30;;;;;;;;;;5077323;28;20032;-64
2021/04/14 09:22:32;;;;;;;6.28;3.50;;;;;;;;;;5076271;28;20024;-64
2021/04/14 09:24:57;;;;;;;6.68;2.83;;;;;;;;;;5077733;28;20025;-64
2021/04/14 09:27:31;;;;;;;7.63;1.92;;;;;;;;;;5076069;28;20655;-64
2021/04/14 09:30:06;;;;;;;4.65;2.30;;;;;;;;;;5077322;28;20031;-64
2021/04/14 09:32:37;;;;;;;5.70;2.92;;;;;;;;;;5075422;28;20025;-64
2021/04/14 09:35:16;;;;;;;3.30;2.22;;;;;;;;;;5077943;28;20466;-64
2021/04/14 09:37:42;;;;;;;4.90;2.05;;;;;;;;;;5071336;28;20020;-64
2021/04/14 09:40:08;;;;;;;10.90;3.55;;;;;;;;;;5067780;28;20797;-64
2021/04/14 09:42:34;;;;;;;11.88;6.68;;;;;;;;;;5074786;28;20544;-64
2021/04/14 09:45:11;;;;;;;7.78;4.65;;;;;;;;;;5077723;28;20028;-63
2021/04/14 09:47:36;;;;;;;5.88;2.92;;;;;;;;;;5075339;28;20032;-61
2021/04/14 09:50:14;;;;;;;5.35;2.75;;;;;;;;;;5077403;28;20044;-64
2021/04/14 09:52:42;;;;;;;11.52;1.85;;;;;;;;;;5071670;28;20730;-64
2021/04/14 09:55:08;;;;;;;6.45;2.58;;;;;;;;;;5065965;28;20028;-67
2021/04/14 09:57:36;;;;;;;13.85;4.32;;;;;;;;;;5070232;28;20056;-67
2021/04/14 10:00:02;;;;;;;6.30;2.22;;;;;;;;;;5075002;28;20107;-66
2021/04/14 10:02:29;;;;;;;10.70;3.85;;;;;;;;;;5075400;28;20112;-60
2021/04/14 10:04:54;;;;;;;6.45;1.95;;;;;;;;;;5069302;28;20086;-60
2021/04/14 10:07:22;;;;;;;5.45;3.28;;;;;;;;;;5074580;28;20020;-60
2021/04/14 10:09:48;;;;;;;6.10;2.10;;;;;;;;;;5075014;28;20737;-60
2021/04/14 10:12:13;;;;;;;2.20;1.45;;;;;;;;;;5075296;28;20020;-59
2021/04/14 10:14:40;;;;;;;6.63;3.42;;;;;;;;;;5074139;28;20031;-59
2021/04/14 10:17:06;;;;;;;2.58;1.55;;;;;;;;;;5075010;28;20490;-59
2021/04/14 10:19:34;;;;;;;9.98;2.47;;;;;;;;;;5074097;28;20090;-59
2021/04/14 10:22:07;;;;;;;8.82;3.15;;;;;;;;;;5076837;28;20542;-60
2021/04/14 10:24:32;;;;;;;4.47;2.50;;;;;;;;;;5073828;28;20542;-60
2021/04/14 10:26:58;;;;;;;5.13;2.17;;;;;;;;;;5076621;28;20045;-60
2021/04/14 10:29:29;;;;;;;6.82;1.88;;;;;;;;;;5074277;28;20564;-60
2021/04/14 10:31:58;;;;;;;16.93;2.33;;;;;;;;;;5073608;28;20024;-60
2021/04/14 10:34:26;;;;;;;4.78;1.45;;;;;;;;;;5074151;28;20049;-60
2021/04/14 10:36:52;;;;;;;12.35;2.55;;;;;;;;;;5075621;28;20028;-61
2021/04/14 10:39:25;;;;;;;2.85;1.77;;;;;;;;;;5074926;28;20576;-60
2021/04/14 10:41:53;;;;;;;9.52;2.78;;;;;;;;;;5073821;28;20032;-60
2021/04/14 10:44:20;;;;;;;6.00;1.70;;;;;;;;;;5074889;28;20032;-60
2021/04/14 10:46:46;;;;;;;10.02;1.60;;;;;;;;;;5080753;28;20029;-60
2021/04/14 10:49:14;;;;;;;10.85;2.45;;;;;;;;;;5075429;28;20021;-61
2021/04/14 10:51:47;;;;;;;2.67;1.23;;;;;;;;;;5072955;28;20101;-60
2021/04/14 10:54:14;;;;;;;11.25;3.25;;;;;;;;;;5070418;28;20398;-60
2021/04/14 10:56:39;;;;;;;3.95;2.35;;;;;;;;;;5073056;28;20485;-60
2021/04/14 10:59:09;;;;;;;3.88;2.17;;;;;;;;;;5065900;28;20057;-60
2021/04/14 11:01:36;;;;;;;5.32;1.77;;;;;;;;;;5067206;28;20078;-60
2021/04/14 11:04:04;;;;;;;7.93;2.30;;;;;;;;;;5069598;28;20028;-60
2021/04/14 11:06:30;;;;;;;4.03;2.53;;;;;;;;;;5070996;28;20029;-60
2021/04/14 11:08:55;;;;;;;7.65;1.88;;;;;;;;;;5072405;28;20032;-59
2021/04/14 11:11:21;;;;;;;6.10;2.03;;;;;;;;;;5070694;28;20462;-59
2021/04/14 11:13:49;;;;;;;4.13;1.85;;;;;;;;;;5069407;28;20078;-59
2021/04/14 11:16:14;;;;;;;6.28;2.67;;;;;;;;;;5070218;28;20034;-59
2021/04/14 11:18:42;;;;;;;7.25;3.55;;;;;;;;;;5069841;28;20049;-60
2021/04/14 11:21:30;;;;;;;7.90;3.47;;;;;;;;;;5069389;28;20052;-59
2021/04/14 11:24:06;;;;;;;4.75;2.65;;;;;;;;;;5068729;28;20086;-60
2021/04/14 11:26:31;;;;;;;6.10;1.25;;;;;;;;;;5069979;28;20372;-60
2021/04/14 11:28:57;;;;;;;4.25;3.13;;;;;;;;;;5066735;28;20070;-60
2021/04/14 11:31:32;;;;;;;7.50;3.45;;;;;;;;;;5069404;28;20662;-60
2021/04/14 11:33:59;;;;;;;5.50;2.88;;;;;;;;;;5067917;28;20035;-60
2021/04/14 11:36:24;;;;;;;6.50;2.83;;;;;;;;;;5066251;28;20043;-60
2021/04/14 11:39:19;;;;;;;11.25;4.18;;;;;;;;;;5067855;28;20025;-60
2021/04/14 11:41:50;;;;;;;6.88;3.28;;;;;;;;;;5056766;28;20043;-60
2021/04/14 11:44:18;;;;;;;4.55;2.55;;;;;;;;;;5071259;28;20139;-60
2021/04/14 11:46:53;;;;;;;6.47;4.68;;;;;;;;;;5068035;28;20024;-61
2021/04/14 11:49:27;;;;;;;18.27;3.90;;;;;;;;;;5063167;28;20016;-60
2021/04/14 11:51:56;;;;;;;8.60;2.72;;;;;;;;;;5068909;28;20028;-60
2021/04/14 11:54:27;;;;;;;6.60;2.25;;;;;;;;;;5067069;28;20521;-61
2021/04/14 11:57:01;;;;;;;4.63;1.75;;;;;;;;;;5071494;28;20040;-60
2021/04/14 11:59:28;;;;;;;2.75;1.55;;;;;;;;;;5066386;28;20029;-60
2021/04/14 12:01:55;;;;;;;7.28;3.40;;;;;;;;;;5070129;28;20050;-60
2021/04/14 12:04:20;;;;;;;6.15;1.30;;;;;;;;;;5069755;28;20637;-60
2021/04/14 12:06:46;;;;;;;4.88;2.42;;;;;;;;;;5070163;28;20016;-60
2021/04/14 12:09:11;;;;;;;5.88;3.05;;;;;;;;;;5071114;28;20081;-60
2021/04/14 12:11:37;;;;;;;5.25;3.70;;;;;;;;;;5069798;28;20036;-60
2021/04/14 12:14:02;;;;;;;6.82;2.85;;;;;;;;;;5071914;28;20032;-60
2021/04/14 12:16:28;;;;;;;6.28;1.90;;;;;;;;;;5067060;28;20032;-60
2021/04/14 12:18:53;;;;;;;8.75;3.03;;;;;;;;;;5069254;28;20061;-61
2021/04/14 12:21:19;;;;;;;4.07;1.67;;;;;;;;;;5070787;28;20059;-61
2021/04/14 12:23:46;;;;;;;5.75;2.35;;;;;;;;;;5069761;28;20035;-61
2021/04/14 12:26:12;;;;;;;7.45;4.28;;;;;;;;;;5071923;28;20023;-60
2021/04/14 12:28:37;;;;;;;6.25;5.65;;;;;;;;;;5069142;28;20025;-60
2021/04/14 12:31:02;;;;;;;5.85;2.55;;;;;;;;;;5070914;28;20039;-60
2021/04/14 12:33:28;;;;;;;6.57;3.20;;;;;;;;;;5069716;28;20036;-60
2021/04/14 12:35:53;;;;;;;16.80;4.82;;;;;;;;;;5073279;28;20745;-60
2021/04/14 12:38:18;;;;;;;19.25;3.88;;;;;;;;;;5074314;28;20634;-61
2021/04/14 12:40:44;;;;;;;15.55;4.05;;;;;;;;;;5073399;28;20032;-60
2021/04/14 12:43:09;;;;;;;5.80;5.18;;;;;;;;;;5075391;28;20457;-60
2021/04/14 12:45:37;;;;;;;6.15;1.88;;;;;;;;;;5072976;28;20081;-61
2021/04/14 12:48:04;;;;;;;4.13;3.47;;;;;;;;;;5076373;28;20482;-59
2021/04/14 12:50:29;;;;;;;5.18;3.22;;;;;;;;;;5073212;28;20568;-60
2021/04/14 12:52:57;;;;;;;7.22;3.50;;;;;;;;;;5066664;28;20108;-60
2021/04/14 12:55:26;;;;;;;10.82;5.55;;;;;;;;;;5075462;28;20322;-60
2021/04/14 12:57:54;;;;;;;4.20;2.53;;;;;;;;;;5076583;28;20031;-60
2021/04/14 13:00:21;;;;;;;8.95;2.80;;;;;;;;;;5076030;28;20024;-60
2021/04/14 13:02:46;;;;;;;6.22;2.63;;;;;;;;;;5071982;28;20037;-60
2021/04/14 13:05:16;;;;;;;8.20;1.88;;;;;;;;;;5069945;28;20029;-61
2021/04/14 13:07:50;;;;;;;4.15;1.65;;;;;;;;;;5069133;28;20020;-60
2021/04/14 13:10:17;;;;;;;6.32;2.15;;;;;;;;;;5070254;28;20020;-60
2021/04/14 13:12:43;;;;;;;4.88;2.08;;;;;;;;;;5069973;28;20021;-59
2021/04/14 13:15:10;;;;;;;16.55;5.15;;;;;;;;;;5069281;28;20459;-59
2021/04/14 13:17:38;;;;;;;11.63;4.68;;;;;;;;;;5069780;28;20655;-59
2021/04/14 13:20:04;;;;;;;10.73;4.00;;;;;;;;;;5069837;28;20055;-60
2021/04/14 13:22:29;;;;;;;5.30;2.20;;;;;;;;;;5070150;28;20149;-59
2021/04/14 13:25:00;;;;;;;4.30;2.22;;;;;;;;;;5074596;28;20753;-60
2021/04/14 13:27:31;;;;;;;5.18;2.20;;;;;;;;;;5072500;28;20348;-59
2021/04/14 13:29:57;;;;;;;;;;;;;;;;;;5074492;28;20027;-60
2021/04/14 13:32:31;;;;;;;16.30;4.53;;;;;;;;;;5068383;28;19920;-60
2021/04/14 13:34:56;;;;;;;4.35;2.67;;;;;;;;;;5078119;28;20574;-60
2021/04/14 13:37:26;;;;;;;5.28;4.38;;;;;;;;;;5076179;28;20222;-60
2021/04/14 13:39:57;;;;;;;6.53;3.67;;;;;;;;;;5076619;28;20060;-61
2021/04/14 13:42:27;;;;;;;6.43;2.75;;;;;;;;;;5071585;28;20028;-60
2021/04/14 13:44:52;;;;;;;8.53;2.77;;;;;;;;;;5076584;28;20433;-60
2021/04/14 13:47:37;;;;;;;7.40;3.38;;;;;;;;;;5075292;28;20020;-60
2021/04/14 13:50:07;;;;;;;4.63;2.92;;;;;;;;;;5077689;28;20062;-60
2021/04/14 13:52:33;;;;;;;7.10;2.90;;;;;;;;;;5075312;28;20020;-59
2021/04/14 13:54:59;;;;;;;5.78;2.40;;;;;;;;;;5076984;28;20417;-61
2021/04/14 13:57:30;;;;;;;11.88;3.25;;;;;;;;;;5073374;28;20082;-61
2021/04/14 13:59:55;;;;;;;8.25;1.92;;;;;;;;;;5077139;28;20141;-61
2021/04/14 14:02:31;;;;;;;3.70;2.63;;;;;;;;;;5073947;28;20257;-60
2021/04/14 14:04:58;;;;;;;4.95;2.58;;;;;;;;;;5072704;28;20074;-61
2021/04/14 14:07:23;;;;;;;5.95;3.40;;;;;;;;;;5072806;28;20108;-63
2021/04/14 14:10:08;;;;;;;6.85;2.35;;;;;;;;;;5076010;28;20107;-61
2021/04/14 14:12:36;;;;;;;10.52;2.00;;;;;;;;;;5070293;28;20076;-70
2021/04/14 14:15:03;;;;;;;5.20;2.42;;;;;;;;;;5076317;28;20039;-69
2021/04/14 14:17:30;;;;;;;5.18;2.92;;;;;;;;;;5073272;28;20135;-69
2021/04/14 14:20:04;;;;;;;5.72;3.08;;;;;;;;;;5075803;28;20067;-70
2021/04/14 14:22:30;;;;;;;3.20;2.08;;;;;;;;;;5074325;28;20035;-68
2021/04/14 14:24:56;;;;;;;7.05;2.67;;;;;;;;;;5075998;28;20024;-69
2021/04/14 14:27:21;;;;;;;7.25;2.75;;;;;;;;;;5075080;28;20073;-69
2021/04/14 14:29:47;;;;;;;2.95;1.90;;;;;;;;;;5074437;28;20793;-69
2021/04/14 14:32:17;;;;;;;6.40;1.90;;;;;;;;;;5075198;28;20036;-69
2021/04/14 14:34:43;;;;;;;5.10;3.33;;;;;;;;;;5073169;28;20032;-69
2021/04/14 14:37:12;;;;;;;6.00;2.88;;;;;;;;;;5076318;28;20060;-69
2021/04/14 14:39:38;;;;;;;2.88;2.38;;;;;;;;;;5074088;28;20043;-69
2021/04/14 14:42:15;;;;;;;10.15;2.88;;;;;;;;;;5074035;28;20067;-69
2021/04/14 14:44:40;;;;;;;3.58;1.80;;;;;;;;;;5073724;28;20116;-68
2021/04/14 14:47:06;;;;;;;9.88;2.53;;;;;;;;;;5076294;28;20103;-68